createdAt,value
2019-02-18T00:00:47.332Z,38.97
2019-02-18T00:03:17.038Z,38.50
2019-02-18T00:05:46.637Z,37.60
2019-02-18T00:08:15.971Z,39.03
2019-02-18T00:10:45.315Z,38.77
2019-02-18T00:13:14.643Z,38.10
2019-02-18T00:15:43.974Z,38.87
2019-02-18T00:18:13.343Z,38.83
2019-02-18T00:20:42.950Z,38.33
2019-02-18T00:23:12.262Z,39.03
2019-02-18T00:25:41.947Z,40.10
2019-02-18T00:28:11.565Z,40.60
2019-02-18T00:30:40.884Z,39.77
2019-02-18T00:33:10.212Z,41.47
2019-02-18T00:35:39.868Z,38.93
2019-02-18T00:38:09.470Z,40.37
2019-02-18T00:40:39.091Z,40.07
2019-02-18T00:43:08.402Z,39.23
2019-02-18T00:45:37.734Z,39.93
2019-02-18T00:48:07.053Z,41.30
2019-02-18T00:50:36.381Z,41.87
2019-02-18T00:53:06.095Z,41.57
2019-02-18T00:55:35.446Z,39.93
2019-02-18T00:58:05.115Z,41.27
2019-02-18T01:00:34.819Z,40.57
2019-02-18T01:03:04.348Z,40.70
2019-02-18T01:05:34.030Z,41.20
2019-02-18T01:08:03.630Z,40.70
2019-02-18T01:10:33.446Z,39.33
2019-02-18T01:13:03.051Z,40.00
2019-02-18T01:15:32.759Z,39.13
2019-02-18T01:18:02.474Z,39.07
2019-02-18T01:20:32.084Z,39.13
2019-02-18T01:23:01.779Z,40.13
2019-02-18T01:25:31.217Z,39.13
2019-02-18T01:28:00.554Z,39.53
2019-02-18T01:30:30.194Z,40.63
2019-02-18T01:32:59.885Z,41.43
2019-02-18T01:35:29.604Z,39.53
2019-02-18T01:37:59.224Z,40.83
2019-02-18T01:40:28.926Z,40.30
2019-02-18T01:42:58.636Z,40.43
2019-02-18T01:45:27.947Z,39.97
2019-02-18T01:47:57.645Z,40.40
2019-02-18T01:50:26.987Z,40.00
2019-02-18T01:52:56.296Z,40.60
2019-02-18T01:55:25.628Z,40.67
2019-02-18T01:57:54.955Z,41.10
2019-02-18T02:00:24.641Z,41.47
2019-02-18T02:02:54.244Z,42.43
2019-02-18T02:05:23.857Z,41.97
2019-02-18T02:07:56.333Z,41.63
2019-02-18T02:10:24.363Z,42.83
2019-02-18T02:13:15.062Z,42.33
2019-02-18T02:15:44.389Z,41.90
2019-02-18T02:18:13.738Z,43.50
2019-02-18T02:20:43.059Z,42.00
2019-02-18T02:23:12.397Z,42.53
2019-02-18T02:25:42.037Z,42.43
2019-02-18T02:28:11.388Z,42.90
2019-02-18T02:30:40.716Z,41.87
2019-02-18T02:33:10.441Z,43.77
2019-02-18T02:35:40.070Z,42.67
2019-02-18T02:38:09.377Z,44.13
2019-02-18T02:40:39.186Z,43.73
2019-02-18T02:43:08.487Z,42.40
2019-02-18T02:45:38.673Z,43.30
2019-02-18T02:48:08.026Z,43.47
2019-02-18T02:50:37.374Z,43.77
2019-02-18T02:53:06.742Z,42.17
2019-02-18T02:55:36.128Z,42.00
2019-02-18T02:58:05.461Z,42.23
2019-02-18T03:00:35.022Z,42.60
2019-02-18T03:03:04.366Z,42.40
2019-02-18T03:05:33.705Z,43.77
2019-02-18T03:08:03.370Z,43.67
2019-02-18T03:10:33.075Z,43.07
2019-02-18T03:13:02.439Z,42.80
2019-02-18T03:15:31.765Z,42.43
2019-02-18T03:18:01.332Z,42.87
2019-02-18T03:20:30.669Z,45.47
2019-02-18T03:23:00.292Z,42.53
2019-02-18T03:25:32.190Z,44.40
2019-02-18T03:28:25.975Z,43.97
2019-02-18T03:31:03.034Z,43.33
2019-02-18T03:33:51.795Z,44.40
2019-02-18T03:36:21.570Z,43.93
2019-02-18T03:38:50.893Z,43.73
2019-02-18T03:41:20.261Z,45.23
2019-02-18T03:43:49.881Z,45.47
2019-02-18T03:46:19.187Z,45.13
2019-02-18T03:48:48.547Z,46.30
2019-02-18T03:51:17.889Z,46.27
2019-02-18T03:53:47.233Z,45.63
2019-02-18T03:56:16.915Z,43.93
2019-02-18T03:58:46.209Z,43.67
2019-02-18T04:01:15.900Z,45.70
2019-02-18T04:03:45.505Z,44.07
2019-02-18T04:06:14.831Z,44.80
2019-02-18T04:08:44.171Z,45.23
2019-02-18T04:11:13.572Z,43.87
2019-02-18T04:13:43.207Z,42.70
2019-02-18T04:16:12.525Z,46.67
2019-02-18T04:18:41.858Z,45.97
2019-02-18T04:21:11.231Z,45.63
2019-02-18T04:23:40.731Z,45.63
2019-02-18T04:26:10.421Z,46.03
2019-02-18T04:28:40.153Z,46.13
2019-02-18T04:31:09.486Z,46.37
2019-02-18T04:33:38.871Z,44.53
2019-02-18T04:36:08.342Z,45.87
2019-02-18T04:38:38.063Z,47.13
2019-02-18T04:41:07.766Z,46.77
2019-02-18T04:43:37.117Z,46.13
2019-02-18T04:46:06.452Z,45.87
2019-02-18T04:48:36.068Z,45.90
2019-02-18T04:51:05.420Z,46.97
2019-02-18T04:53:35.070Z,46.73
2019-02-18T04:56:04.535Z,47.03
2019-02-18T04:58:33.869Z,46.53
2019-02-18T05:01:03.210Z,48.17
2019-02-18T05:03:32.899Z,48.97
2019-02-18T05:06:02.262Z,47.90
2019-02-18T05:08:31.604Z,47.00
2019-02-18T05:11:01.310Z,48.00
2019-02-18T05:13:31.115Z,47.87
2019-02-18T05:16:00.799Z,48.27
2019-02-18T05:18:30.417Z,48.67
2019-02-18T05:21:00.124Z,47.23
2019-02-18T05:23:29.516Z,47.17
2019-02-18T05:25:58.850Z,46.50
2019-02-18T05:28:28.179Z,48.30
2019-02-18T05:30:57.522Z,49.97
2019-02-18T05:33:27.142Z,48.10
2019-02-18T05:35:56.471Z,49.13
2019-02-18T05:38:25.809Z,50.23
2019-02-18T05:40:55.549Z,48.90
2019-02-18T05:43:24.892Z,49.27
2019-02-18T05:45:54.240Z,50.03
2019-02-18T05:48:23.549Z,50.03
2019-02-18T05:50:53.073Z,50.17
2019-02-18T05:53:22.439Z,48.60
2019-02-18T05:55:51.761Z,50.93
2019-02-18T05:58:21.467Z,49.77
2019-02-18T06:00:51.172Z,49.00
2019-02-18T06:03:20.888Z,50.80
2019-02-18T06:05:50.502Z,50.40
2019-02-18T06:08:19.852Z,50.03
2019-02-18T06:10:49.200Z,50.13
2019-02-18T06:13:18.503Z,51.50
2019-02-18T06:15:47.861Z,50.47
2019-02-18T06:18:17.610Z,52.10
2019-02-18T06:20:47.290Z,51.20
2019-02-18T06:23:16.905Z,51.10
2019-02-18T06:25:46.243Z,50.03
2019-02-18T06:28:15.591Z,51.20
2019-02-18T06:30:44.917Z,52.33
2019-02-18T06:33:14.596Z,52.37
2019-02-18T06:35:43.904Z,52.70
2019-02-18T06:38:13.505Z,51.57
2019-02-18T06:40:43.107Z,50.27
2019-02-18T06:43:12.442Z,49.33
2019-02-18T06:45:43.807Z,50.27
2019-02-18T06:48:20.839Z,52.40
2019-02-18T06:50:53.268Z,52.97
2019-02-18T06:53:22.928Z,50.80
2019-02-18T06:55:52.319Z,50.53
2019-02-18T06:58:33.470Z,52.23
2019-02-18T07:01:04.431Z,51.37
2019-02-18T07:03:35.500Z,50.83
2019-02-18T07:06:12.584Z,51.13
2019-02-18T07:08:49.755Z,50.60
2019-02-18T07:11:21.103Z,51.97
2019-02-18T07:13:50.458Z,53.67
2019-02-18T07:16:19.778Z,51.97
2019-02-18T07:18:49.109Z,52.03
2019-02-18T07:21:18.715Z,51.57
2019-02-18T07:23:48.124Z,52.43
2019-02-18T07:26:17.464Z,50.77
2019-02-18T07:28:46.778Z,51.63
2019-02-18T07:31:16.106Z,52.77
2019-02-18T07:33:45.724Z,53.03
2019-02-18T07:36:15.037Z,52.30
2019-02-18T07:38:44.719Z,51.47
2019-02-18T07:41:14.057Z,52.17
2019-02-18T07:43:43.409Z,52.37
2019-02-18T07:46:13.012Z,51.57
2019-02-18T07:48:42.338Z,52.07
2019-02-18T07:51:11.990Z,51.70
2019-02-18T07:53:41.319Z,52.13
2019-02-18T07:56:10.914Z,52.77
2019-02-18T07:58:40.633Z,50.83
2019-02-18T08:01:10.249Z,51.83
2019-02-18T08:03:39.591Z,50.70
2019-02-18T08:06:08.927Z,51.63
2019-02-18T08:08:38.274Z,50.97
2019-02-18T08:11:07.596Z,51.90
2019-02-18T08:13:36.986Z,51.20
2019-02-18T08:16:06.357Z,51.43
2019-02-18T08:18:35.949Z,51.93
2019-02-18T08:21:05.671Z,50.60
2019-02-18T08:23:35.010Z,51.17
2019-02-18T08:26:05.053Z,52.37
2019-02-18T08:28:34.343Z,51.67
2019-02-18T08:31:03.934Z,52.17
2019-02-18T08:33:33.573Z,51.20
2019-02-18T08:36:03.242Z,51.43
2019-02-18T08:38:32.916Z,49.50
2019-02-18T08:41:02.246Z,49.93
2019-02-18T08:43:31.688Z,50.97
2019-02-18T08:46:01.026Z,51.47
2019-02-18T08:48:30.367Z,50.00
2019-02-18T08:50:59.791Z,50.90
2019-02-18T08:53:29.109Z,51.53
2019-02-18T08:55:58.437Z,48.87
2019-02-18T08:58:27.795Z,50.73
2019-02-18T09:01:02.557Z,50.73
2019-02-18T09:03:28.164Z,49.57
2019-02-18T09:05:57.558Z,49.90
2019-02-18T09:08:26.925Z,49.53
2019-02-18T09:10:56.233Z,47.90
2019-02-18T09:13:25.541Z,50.00
2019-02-18T09:16:00.002Z,49.00
2019-02-18T09:18:26.215Z,48.57
2019-02-18T09:20:55.524Z,49.50
2019-02-18T09:23:26.517Z,48.10
2019-02-18T09:25:56.022Z,48.10
2019-02-18T09:28:25.631Z,46.33
2019-02-18T09:30:55.219Z,47.53
2019-02-18T09:33:24.564Z,47.00
2019-02-18T09:35:54.176Z,47.60
2019-02-18T09:38:25.392Z,46.00
2019-02-18T09:40:54.834Z,44.87
2019-02-18T09:43:24.157Z,47.13
2019-02-18T09:45:53.512Z,47.63
2019-02-18T09:48:22.843Z,44.57
2019-02-18T09:50:52.579Z,46.50
2019-02-18T09:53:21.903Z,47.37
2019-02-18T09:55:51.264Z,45.37
2019-02-18T09:58:20.946Z,46.53
2019-02-18T10:00:50.380Z,45.90
2019-02-18T10:03:20.169Z,46.83
2019-02-18T10:05:49.508Z,45.50
2019-02-18T10:08:19.171Z,44.87
2019-02-18T10:10:55.762Z,44.43
2019-02-18T10:13:19.579Z,42.93
2019-02-18T10:15:49.322Z,44.17
2019-02-18T10:18:18.936Z,43.67
2019-02-18T10:20:48.507Z,44.23
2019-02-18T10:23:18.112Z,44.13
2019-02-18T10:25:47.725Z,43.87
2019-02-18T10:28:17.305Z,45.47
2019-02-18T10:30:46.654Z,44.40
2019-02-18T10:33:16.264Z,41.67
2019-02-18T10:35:45.604Z,44.20
2019-02-18T10:38:15.369Z,43.47
2019-02-18T10:40:44.770Z,44.47
2019-02-18T10:43:14.086Z,42.53
2019-02-18T10:45:43.511Z,43.30
2019-02-18T10:48:12.858Z,42.63
2019-02-18T10:50:42.493Z,43.33
2019-02-18T10:53:11.829Z,43.93
2019-02-18T10:55:41.437Z,42.47
2019-02-18T10:58:10.800Z,42.90
2019-02-18T11:00:40.388Z,43.33
2019-02-18T11:03:09.705Z,41.87
2019-02-18T11:05:39.473Z,41.80
2019-02-18T11:08:09.617Z,65.57
2019-02-18T11:10:39.233Z,51.27
2019-02-18T11:13:08.585Z,72.13
2019-02-18T11:15:37.920Z,39.77
2019-02-18T11:18:07.261Z,40.30
2019-02-18T11:20:36.660Z,40.20
2019-02-18T11:23:06.000Z,39.67
2019-02-18T11:25:35.316Z,41.33
2019-02-18T11:28:04.885Z,40.37
2019-02-18T11:30:34.478Z,39.20
2019-02-18T11:33:04.096Z,39.20
2019-02-18T11:35:33.412Z,39.17
2019-02-18T11:38:03.014Z,40.13
2019-02-18T11:40:32.610Z,41.00
2019-02-18T11:43:02.217Z,41.37
2019-02-18T11:45:31.563Z,40.27
2019-02-18T11:48:01.188Z,40.93
2019-02-18T11:50:30.520Z,41.50
2019-02-18T11:52:59.863Z,41.63
2019-02-18T11:55:29.671Z,39.27
2019-02-18T11:57:59.020Z,40.77
2019-02-18T12:00:28.627Z,40.20
2019-02-18T12:03:03.660Z,40.67
2019-02-18T12:05:29.344Z,39.57
2019-02-18T12:07:58.715Z,39.10
2019-02-18T12:10:28.661Z,38.53
2019-02-18T12:12:58.251Z,39.40
2019-02-18T12:15:27.639Z,39.20
2019-02-18T12:18:00.360Z,40.60
2019-02-18T12:20:30.044Z,40.20
2019-02-18T12:22:59.416Z,40.23
2019-02-18T12:25:28.764Z,38.67
2019-02-18T12:27:59.993Z,37.53
2019-02-18T12:30:29.710Z,37.30
2019-02-18T12:32:59.035Z,36.63
2019-02-18T12:35:32.663Z,36.93
2019-02-18T12:37:59.981Z,38.73
2019-02-18T12:40:29.662Z,36.17
2019-02-18T12:42:58.989Z,38.60
2019-02-18T12:45:28.796Z,36.80
2019-02-18T12:47:58.352Z,36.63
2019-02-18T12:50:27.690Z,36.80
2019-02-18T12:52:57.417Z,38.80
2019-02-18T12:55:26.959Z,37.23
2019-02-18T12:57:56.706Z,37.53
2019-02-18T13:00:26.083Z,37.27
2019-02-18T13:02:55.837Z,38.70
2019-02-18T13:05:25.177Z,37.43
2019-02-18T13:07:54.546Z,38.60
2019-02-18T13:10:34.481Z,36.13
2019-02-18T13:12:55.783Z,37.77
2019-02-18T13:15:25.216Z,35.43
2019-02-18T13:17:54.556Z,35.57
2019-02-18T13:20:23.890Z,35.37
2019-02-18T13:22:53.593Z,34.50
2019-02-18T13:25:23.308Z,33.60
2019-02-18T13:27:52.915Z,34.13
2019-02-18T13:30:22.250Z,33.80
2019-02-18T13:32:51.908Z,33.13
2019-02-18T13:35:21.262Z,33.97
2019-02-18T13:37:50.601Z,33.10
2019-02-18T13:40:19.960Z,35.53
2019-02-18T13:42:49.830Z,33.60
2019-02-18T13:45:19.174Z,34.37
2019-02-18T13:47:48.495Z,32.50
2019-02-18T13:50:18.158Z,32.07
2019-02-18T13:52:47.509Z,31.40
2019-02-18T13:55:17.087Z,31.70
2019-02-18T13:57:46.771Z,32.33
2019-02-18T14:00:21.198Z,32.60
2019-02-18T14:02:51.554Z,30.40
2019-02-18T14:05:22.218Z,30.30
2019-02-18T14:07:51.583Z,31.60
2019-02-18T14:10:21.729Z,32.67
2019-02-18T14:12:51.065Z,29.67
2019-02-18T14:15:21.187Z,29.93
2019-02-18T14:17:50.802Z,29.57
2019-02-18T14:20:20.515Z,29.83
2019-02-18T14:22:50.212Z,30.23
2019-02-18T14:25:19.548Z,29.63
2019-02-18T14:27:49.228Z,27.80
2019-02-18T14:30:19.580Z,27.57
2019-02-18T14:32:49.364Z,28.37
2019-02-18T14:35:19.383Z,28.20
2019-02-18T14:37:49.236Z,26.77
2019-02-18T14:40:20.469Z,26.07
2019-02-18T14:42:50.752Z,25.67
2019-02-18T14:45:20.579Z,27.00
2019-02-18T14:47:50.178Z,26.17
2019-02-18T14:50:19.990Z,27.20
2019-02-18T14:52:49.700Z,26.10
2019-02-18T14:55:19.043Z,26.93
2019-02-18T14:57:48.707Z,25.33
2019-02-18T15:00:24.134Z,27.40
2019-02-18T15:02:57.038Z,26.07
2019-02-18T15:05:27.560Z,27.77
2019-02-18T15:07:57.188Z,28.07
2019-02-18T15:10:26.791Z,26.87
2019-02-18T15:12:56.156Z,25.77
2019-02-18T15:15:25.802Z,24.53
2019-02-18T15:17:55.509Z,25.57
2019-02-18T15:20:24.927Z,25.20
2019-02-18T15:22:54.625Z,24.17
2019-02-18T15:25:23.960Z,25.13
2019-02-18T15:27:53.293Z,24.10
2019-02-18T15:30:22.998Z,24.83
2019-02-18T15:32:52.686Z,24.30
2019-02-18T15:35:22.458Z,24.00
2019-02-18T15:37:52.088Z,24.10
2019-02-18T15:40:21.763Z,22.80
2019-02-18T15:42:51.370Z,23.23
2019-02-18T15:45:20.979Z,22.67
2019-02-18T15:47:50.323Z,22.63
2019-02-18T15:50:19.919Z,22.87
2019-02-18T15:52:49.596Z,22.70
2019-02-18T15:55:18.949Z,23.90
2019-02-18T15:57:48.327Z,22.17
2019-02-18T16:00:24.863Z,22.50
2019-02-18T16:02:54.183Z,22.80
2019-02-18T16:05:23.534Z,20.67
2019-02-18T16:07:52.850Z,21.77
2019-02-18T16:10:22.500Z,21.53
2019-02-18T16:12:51.846Z,20.97
2019-02-18T16:15:21.162Z,21.60
2019-02-18T16:17:50.497Z,21.93
2019-02-18T16:20:19.862Z,22.63
2019-02-18T16:22:49.262Z,22.73
2019-02-18T16:25:24.260Z,23.23
2019-02-18T16:27:53.626Z,22.57
2019-02-18T16:30:23.755Z,23.13
2019-02-18T16:32:53.223Z,22.70
2019-02-18T16:35:22.597Z,23.27
2019-02-18T16:37:51.948Z,22.73
2019-02-18T16:40:21.920Z,24.60
2019-02-18T16:42:59.114Z,23.67
2019-02-18T16:45:22.685Z,24.27
2019-02-18T16:47:53.061Z,23.73
2019-02-18T16:50:22.384Z,23.93
2019-02-18T16:52:51.722Z,24.80
2019-02-18T16:55:21.366Z,24.50
2019-02-18T16:57:51.402Z,24.07
2019-02-18T17:00:22.381Z,25.33
2019-02-18T17:02:52.062Z,23.90
2019-02-18T17:05:21.840Z,25.60
2019-02-18T17:07:51.559Z,25.60
2019-02-18T17:10:20.924Z,26.07
2019-02-18T17:12:50.559Z,25.97
2019-02-18T17:15:20.182Z,24.67
2019-02-18T17:17:49.780Z,24.83
2019-02-18T17:20:19.417Z,26.17
2019-02-18T17:22:48.789Z,26.00
2019-02-18T17:25:18.682Z,24.23
2019-02-18T17:27:48.322Z,25.77
2019-02-18T17:30:17.775Z,26.47
2019-02-18T17:32:47.089Z,26.13
2019-02-18T17:35:16.450Z,26.07
2019-02-18T17:37:45.793Z,25.27
2019-02-18T17:40:15.601Z,27.07
2019-02-18T17:42:45.203Z,26.33
2019-02-18T17:45:19.179Z,25.60
2019-02-18T17:47:48.507Z,25.67
2019-02-18T17:50:18.634Z,25.77
2019-02-18T17:52:47.927Z,25.93
2019-02-18T17:55:21.764Z,26.03
2019-02-18T17:57:51.482Z,26.63
2019-02-18T18:00:27.032Z,27.50
2019-02-18T18:02:56.627Z,26.47
2019-02-18T18:05:26.251Z,25.13
2019-02-18T18:07:55.595Z,26.37
2019-02-18T18:10:24.909Z,26.87
2019-02-18T18:12:54.244Z,27.13
2019-02-18T18:15:23.850Z,27.67
2019-02-18T18:17:53.176Z,27.33
2019-02-18T18:20:22.826Z,25.97
2019-02-18T18:22:52.151Z,27.03
2019-02-18T18:25:22.060Z,26.93
2019-02-18T18:27:51.813Z,27.17
2019-02-18T18:30:21.608Z,27.07
2019-02-18T18:32:51.330Z,27.63
2019-02-18T18:35:20.645Z,27.37
2019-02-18T18:37:49.985Z,26.93
2019-02-18T18:40:20.330Z,28.20
2019-02-18T18:42:49.675Z,27.93
2019-02-18T18:45:19.708Z,27.60
2019-02-18T18:47:49.044Z,28.30
2019-02-18T18:50:23.146Z,27.57
2019-02-18T18:52:52.792Z,28.03
2019-02-18T18:55:22.132Z,29.40
2019-02-18T18:57:51.817Z,28.90
2019-02-18T19:00:25.326Z,29.77
2019-02-18T19:02:54.995Z,28.27
2019-02-18T19:05:24.638Z,27.83
2019-02-18T19:07:54.031Z,29.60
2019-02-18T19:10:23.345Z,28.97
2019-02-18T19:12:52.686Z,29.07
2019-02-18T19:15:22.053Z,29.50
2019-02-18T19:17:51.408Z,29.33
2019-02-18T19:20:21.125Z,28.77
2019-02-18T19:22:50.742Z,28.80
2019-02-18T19:25:20.433Z,28.20
2019-02-18T19:27:50.038Z,28.37
2019-02-18T19:30:34.417Z,29.77
2019-02-18T19:33:03.718Z,30.73
2019-02-18T19:35:33.050Z,29.50
2019-02-18T19:38:02.658Z,30.50
2019-02-18T19:40:32.412Z,29.07
2019-02-18T19:43:01.726Z,29.73
2019-02-18T19:45:31.433Z,29.67
2019-02-18T19:48:01.141Z,30.00
2019-02-18T19:50:30.842Z,30.03
2019-02-18T19:53:00.566Z,30.97
2019-02-18T19:55:30.213Z,29.93
2019-02-18T19:58:00.187Z,30.93
2019-02-18T20:00:29.581Z,30.97
2019-02-18T20:02:59.317Z,30.73
2019-02-18T20:05:28.915Z,31.27
2019-02-18T20:07:58.602Z,30.10
2019-02-18T20:10:27.906Z,31.30
2019-02-18T20:12:57.638Z,30.50
2019-02-18T20:15:27.222Z,31.17
2019-02-18T20:17:56.789Z,30.80
2019-02-18T20:20:26.332Z,30.53
2019-02-18T20:22:55.958Z,30.87
2019-02-18T20:25:25.315Z,31.07
2019-02-18T20:27:55.119Z,31.67
2019-02-18T20:30:24.794Z,31.00
2019-02-18T20:32:54.177Z,32.30
2019-02-18T20:35:24.043Z,31.67
2019-02-18T20:37:54.008Z,31.50
2019-02-18T20:40:23.972Z,32.30
2019-02-18T20:42:53.415Z,32.73
2019-02-18T20:45:23.065Z,32.87
2019-02-18T20:47:52.787Z,31.33
2019-02-18T20:50:22.604Z,31.03
2019-02-18T20:52:52.395Z,31.57
2019-02-18T20:55:21.958Z,30.77
2019-02-18T20:57:51.753Z,32.03
2019-02-18T21:00:21.527Z,32.63
2019-02-18T21:02:50.889Z,31.10
2019-02-18T21:05:20.266Z,31.57
2019-02-18T21:07:50.209Z,31.33
2019-02-18T21:10:21.897Z,32.53
2019-02-18T21:12:51.617Z,30.87
2019-02-18T21:15:21.433Z,30.67
2019-02-18T21:17:50.795Z,31.17
2019-02-18T21:20:20.546Z,30.57
2019-02-18T21:22:50.302Z,31.83
2019-02-18T21:25:20.099Z,30.87
2019-02-18T21:27:49.515Z,31.50
2019-02-18T21:30:19.565Z,31.10
2019-02-18T21:32:49.299Z,30.70
2019-02-18T21:35:19.083Z,30.87
2019-02-18T21:37:49.014Z,31.50
2019-02-18T21:40:18.379Z,29.87
2019-02-18T21:42:48.028Z,29.37
2019-02-18T21:45:17.439Z,29.97
2019-02-18T21:47:46.864Z,30.10
2019-02-18T21:50:16.536Z,30.20
2019-02-18T21:52:46.170Z,30.63
2019-02-18T21:55:15.544Z,28.83
2019-02-18T21:57:44.894Z,28.73
2019-02-18T22:00:21.667Z,29.57
2019-02-18T22:02:51.603Z,29.70
2019-02-18T22:05:20.984Z,29.73
2019-02-18T22:07:50.655Z,28.43
2019-02-18T22:10:20.362Z,28.73
2019-02-18T22:12:50.083Z,29.67
2019-02-18T22:15:19.779Z,28.37
2019-02-18T22:17:49.492Z,29.03
2019-02-18T22:20:20.817Z,27.77
2019-02-18T22:22:50.454Z,27.87
2019-02-18T22:25:20.179Z,28.93
2019-02-18T22:27:49.596Z,27.97
2019-02-18T22:30:19.273Z,28.00
2019-02-18T22:32:49.005Z,27.83
2019-02-18T22:35:19.109Z,28.20
2019-02-18T22:37:48.818Z,28.20
2019-02-18T22:40:18.208Z,28.47
2019-02-18T22:42:47.926Z,27.83
2019-02-18T22:45:17.638Z,28.50
2019-02-18T22:47:47.027Z,28.47
2019-02-18T22:50:16.856Z,29.77
2019-02-18T22:52:46.237Z,28.33
2019-02-18T22:55:15.971Z,28.90
2019-02-18T22:57:45.333Z,28.07
2019-02-18T23:00:30.656Z,28.83
2019-02-18T23:03:00.680Z,29.10
2019-02-18T23:05:30.375Z,28.57
2019-02-18T23:08:00.095Z,29.37
2019-02-18T23:10:29.782Z,28.77
2019-02-18T23:12:59.495Z,30.30
2019-02-18T23:15:29.415Z,29.07
2019-02-18T23:17:59.415Z,29.10
2019-02-18T23:20:29.133Z,29.53
2019-02-18T23:22:58.857Z,30.43
2019-02-18T23:25:28.221Z,31.10
2019-02-18T23:27:57.587Z,30.20
2019-02-18T23:30:27.266Z,30.23
2019-02-18T23:32:57.384Z,29.90
2019-02-18T23:35:27.029Z,30.97
2019-02-18T23:37:56.471Z,30.80
2019-02-18T23:40:25.837Z,31.03
2019-02-18T23:42:55.188Z,31.10
2019-02-18T23:45:24.913Z,31.70
2019-02-18T23:47:54.617Z,32.30
2019-02-18T23:50:24.313Z,31.57
2019-02-18T23:52:53.739Z,32.27
2019-02-18T23:55:23.087Z,30.53
2019-02-18T23:57:52.842Z,32.67
